createdAt,value
2023-03-24T00:00:24.034Z,6.67
2023-03-24T00:02:51.464Z,6.65
2023-03-24T00:05:21.067Z,6.65
2023-03-24T00:07:54.592Z,6.59
2023-03-24T00:10:22.823Z,6.53
2023-03-24T00:12:50.215Z,6.51
2023-03-24T00:15:19.722Z,6.50
2023-03-24T00:17:53.180Z,6.51
2023-03-24T00:20:22.643Z,6.51
2023-03-24T00:22:56.932Z,6.49
2023-03-24T00:25:28.135Z,6.47
2023-03-24T00:27:58.106Z,6.41
2023-03-24T00:30:26.115Z,6.47
2023-03-24T00:32:53.471Z,6.45
2023-03-24T00:35:20.579Z,6.45
2023-03-24T00:37:47.897Z,6.43
2023-03-24T00:40:17.240Z,6.41
2023-03-24T00:42:46.193Z,6.37
2023-03-24T00:45:19.966Z,6.37
2023-03-24T00:47:50.162Z,6.39
2023-03-24T00:50:27.168Z,6.41
2023-03-24T00:52:55.067Z,6.47
2023-03-24T00:55:21.795Z,6.49
2023-03-24T00:57:51.440Z,6.52
2023-03-24T01:00:22.101Z,6.57
2023-03-24T01:02:54.125Z,6.57
2023-03-24T01:05:28.116Z,6.54
2023-03-24T01:08:03.772Z,6.48
2023-03-24T01:10:34.330Z,6.41
2023-03-24T01:13:01.749Z,6.43
2023-03-24T01:15:33.545Z,6.41
2023-03-24T01:18:03.448Z,6.38
2023-03-24T01:20:34.217Z,6.39
2023-03-24T01:23:02.376Z,6.43
2023-03-24T01:25:30.625Z,6.49
2023-03-24T01:27:57.664Z,6.51
2023-03-24T01:30:26.933Z,6.53
2023-03-24T01:32:53.823Z,6.49
2023-03-24T01:35:22.314Z,6.49
2023-03-24T01:37:49.386Z,6.49
2023-03-24T01:40:23.170Z,6.50
2023-03-24T01:42:51.321Z,6.49
2023-03-24T01:46:16.864Z,6.48
2023-03-24T01:48:46.265Z,6.52
2023-03-24T01:51:23.900Z,6.54
2023-03-24T01:54:01.531Z,6.53
2023-03-24T01:56:32.697Z,6.56
2023-03-24T01:59:03.834Z,6.59
2023-03-24T02:01:31.486Z,6.58
2023-03-24T02:04:02.031Z,6.54
2023-03-24T02:06:28.700Z,6.47
2023-03-24T02:08:58.471Z,6.43
2023-03-24T02:11:31.385Z,6.38
2023-03-24T02:13:58.398Z,6.43
2023-03-24T02:16:45.373Z,6.34
2023-03-24T02:19:38.413Z,6.24
2023-03-24T02:22:18.234Z,6.15
2023-03-24T02:25:13.379Z,6.12
2023-03-24T02:28:18.062Z,6.09
2023-03-24T02:30:56.675Z,6.12
2023-03-24T02:33:51.247Z,6.17
2023-03-24T02:36:41.847Z,6.24
2023-03-24T02:39:43.022Z,6.34
2023-03-24T02:42:47.334Z,6.39
2023-03-24T02:45:31.301Z,6.46
2023-03-24T02:48:09.211Z,6.51
2023-03-24T02:50:44.858Z,6.54
2023-03-24T02:53:39.008Z,6.57
2023-03-24T02:56:16.806Z,6.59
2023-03-24T02:58:46.410Z,6.57
2023-03-24T03:01:32.463Z,6.60
2023-03-24T03:04:09.805Z,6.64
2023-03-24T03:06:41.135Z,6.64
2023-03-24T03:09:12.225Z,6.67
2023-03-24T03:11:42.672Z,6.71
2023-03-24T03:14:15.040Z,6.71
2023-03-24T03:17:02.301Z,6.73
2023-03-24T03:19:31.741Z,6.77
2023-03-24T03:22:00.553Z,6.79
2023-03-24T03:24:33.334Z,6.81
2023-03-24T03:27:08.442Z,6.83
2023-03-24T03:29:41.068Z,6.84
2023-03-24T03:32:13.871Z,6.85
2023-03-24T03:34:53.289Z,6.87
2023-03-24T03:37:44.857Z,6.89
2023-03-24T03:40:31.293Z,6.87
2023-03-24T03:42:59.222Z,6.92
2023-03-24T03:45:27.857Z,6.93
2023-03-24T03:47:55.575Z,6.94
2023-03-24T03:50:22.392Z,6.94
2023-03-24T03:52:52.930Z,6.94
2023-03-24T03:55:21.176Z,6.98
2023-03-24T03:57:48.326Z,7.01
2023-03-24T04:00:20.026Z,7.03
2023-03-24T04:02:59.911Z,7.02
2023-03-24T04:05:29.922Z,7.02
2023-03-24T04:08:26.469Z,7.06
2023-03-24T04:11:16.275Z,7.09
2023-03-24T04:14:17.089Z,7.06
2023-03-24T04:17:28.456Z,7.12
2023-03-24T04:20:06.066Z,7.19
2023-03-24T04:22:54.153Z,7.21
2023-03-24T04:26:02.445Z,7.29
2023-03-24T04:28:58.163Z,7.34
2023-03-24T04:31:54.900Z,7.36
2023-03-24T04:34:29.428Z,7.38
2023-03-24T04:37:19.799Z,7.40
2023-03-24T04:39:48.589Z,7.37
2023-03-24T04:42:25.179Z,7.37
2023-03-24T04:44:53.311Z,7.42
2023-03-24T04:47:23.086Z,7.43
2023-03-24T04:49:49.900Z,7.46
2023-03-24T04:52:18.001Z,7.52
2023-03-24T04:54:48.911Z,7.47
2023-03-24T04:57:15.832Z,7.57
2023-03-24T04:59:43.136Z,7.56
2023-03-24T05:02:09.878Z,7.56
2023-03-24T05:04:38.137Z,7.60
2023-03-24T05:07:04.896Z,7.60
2023-03-24T05:09:31.748Z,7.65
2023-03-24T05:12:01.742Z,7.71
2023-03-24T05:14:29.846Z,7.76
2023-03-24T05:16:56.728Z,7.81
2023-03-24T05:19:23.393Z,7.86
2023-03-24T05:21:50.082Z,7.93
2023-03-24T05:24:16.625Z,8.00
2023-03-24T05:26:44.030Z,8.02
2023-03-24T05:29:10.712Z,8.05
2023-03-24T05:31:37.303Z,8.06
2023-03-24T05:34:03.919Z,8.13
2023-03-24T05:36:30.599Z,8.17
2023-03-24T05:38:57.216Z,8.21
2023-03-24T05:41:25.361Z,8.24
2023-03-24T05:43:53.115Z,8.28
2023-03-24T05:46:19.745Z,8.29
2023-03-24T05:48:47.590Z,8.29
2023-03-24T05:51:14.178Z,8.35
2023-03-24T05:53:43.836Z,8.39
2023-03-24T05:56:12.166Z,8.37
2023-03-24T05:58:39.449Z,8.38
2023-03-24T06:01:10.355Z,8.38
2023-03-24T06:03:39.745Z,8.43
2023-03-24T06:06:08.313Z,8.42
2023-03-24T06:08:35.643Z,8.42
2023-03-24T06:11:03.537Z,8.46
2023-03-24T06:13:31.238Z,8.48
2023-03-24T06:16:02.203Z,8.60
2023-03-24T06:18:31.503Z,8.68
2023-03-24T06:20:59.604Z,8.75
2023-03-24T06:23:29.162Z,8.76
2023-03-24T06:25:59.421Z,8.81
2023-03-24T06:28:30.493Z,8.86
2023-03-24T06:30:59.202Z,8.85
2023-03-24T06:33:26.659Z,8.90
2023-03-24T06:35:53.652Z,9.02
2023-03-24T06:38:20.704Z,9.04
2023-03-24T06:40:47.441Z,9.05
2023-03-24T06:43:16.778Z,9.13
2023-03-24T06:45:45.216Z,9.17
2023-03-24T06:48:12.344Z,9.20
2023-03-24T06:50:41.104Z,9.29
2023-03-24T06:53:07.907Z,9.31
2023-03-24T06:55:38.495Z,9.35
2023-03-24T06:58:05.668Z,9.27
2023-03-24T07:00:32.315Z,9.18
2023-03-24T07:02:59.126Z,9.09
2023-03-24T07:05:25.788Z,9.02
2023-03-24T07:08:29.622Z,8.97
2023-03-24T07:10:43.040Z,8.92
2023-03-24T07:13:09.989Z,8.92
2023-03-24T07:15:36.727Z,8.88
2023-03-24T07:18:04.454Z,8.82
2023-03-24T07:20:31.105Z,8.84
2023-03-24T07:23:00.386Z,8.88
2023-03-24T07:25:28.801Z,8.84
2023-03-24T07:27:56.496Z,8.80
2023-03-24T07:30:30.134Z,8.87
2023-03-24T07:33:06.850Z,8.98
2023-03-24T07:35:43.194Z,9.02
2023-03-24T07:38:14.183Z,9.06
2023-03-24T07:40:40.740Z,9.09
2023-03-24T07:43:09.154Z,9.20
2023-03-24T07:45:35.879Z,9.38
2023-03-24T07:48:02.627Z,9.45
2023-03-24T07:50:31.739Z,9.50
2023-03-24T07:53:00.311Z,9.53
2023-03-24T07:55:27.446Z,9.51
2023-03-24T07:57:56.813Z,9.54
2023-03-24T08:00:25.905Z,9.63
2023-03-24T08:02:53.817Z,9.72
2023-03-24T08:05:22.700Z,9.87
2023-03-24T08:07:55.787Z,10.05
2023-03-24T08:10:29.284Z,10.17
2023-03-24T08:12:56.428Z,10.25
2023-03-24T08:15:23.283Z,10.45
2023-03-24T08:17:51.129Z,10.59
2023-03-24T08:20:19.918Z,10.55
2023-03-24T08:22:50.123Z,10.45
2023-03-24T08:25:19.287Z,10.19
2023-03-24T08:27:47.420Z,10.19
2023-03-24T08:30:17.571Z,10.19
2023-03-24T08:32:59.543Z,10.27
2023-03-24T08:35:29.109Z,10.32
2023-03-24T08:37:55.791Z,10.34
2023-03-24T08:40:25.948Z,10.34
2023-03-24T08:42:57.997Z,10.38
2023-03-24T08:45:31.247Z,10.28
2023-03-24T08:48:00.959Z,10.15
2023-03-24T08:50:30.750Z,10.19
2023-03-24T08:52:57.582Z,10.19
2023-03-24T08:55:25.601Z,10.15
2023-03-24T08:57:52.502Z,10.09
2023-03-24T09:00:21.078Z,10.10
2023-03-24T09:02:50.703Z,10.11
2023-03-24T09:05:21.282Z,10.13
2023-03-24T09:07:53.817Z,10.01
2023-03-24T09:10:22.633Z,9.88
2023-03-24T09:12:50.043Z,9.71
2023-03-24T09:15:16.947Z,9.72
2023-03-24T09:17:44.287Z,9.82
2023-03-24T09:20:14.556Z,10.03
2023-03-24T09:22:43.919Z,10.06
2023-03-24T09:25:12.581Z,10.07
2023-03-24T09:27:42.347Z,10.28
2023-03-24T09:30:10.976Z,10.34
2023-03-24T09:32:37.731Z,10.36
2023-03-24T09:35:05.498Z,10.21
2023-03-24T09:37:34.726Z,10.04
2023-03-24T09:40:02.286Z,10.00
2023-03-24T09:42:34.059Z,10.08
2023-03-24T09:45:07.984Z,10.19
2023-03-24T09:47:46.659Z,10.17
2023-03-24T09:50:51.433Z,10.09
2023-03-24T09:53:39.428Z,10.01
2023-03-24T09:56:15.075Z,9.98
2023-03-24T09:58:43.691Z,9.92
2023-03-24T10:01:16.036Z,9.86
2023-03-24T10:03:44.184Z,9.87
2023-03-24T10:06:22.025Z,9.98
2023-03-24T10:09:10.732Z,10.00
2023-03-24T10:12:09.581Z,10.10
2023-03-24T10:15:11.657Z,10.03
2023-03-24T10:18:03.089Z,9.96
2023-03-24T10:20:42.129Z,10.05
2023-03-24T10:23:11.663Z,10.09
2023-03-24T10:25:55.698Z,10.05
2023-03-24T10:28:34.308Z,9.98
2023-03-24T10:31:05.036Z,9.96
2023-03-24T10:33:33.777Z,9.98
2023-03-24T10:36:21.680Z,9.93
2023-03-24T10:38:51.042Z,9.79
2023-03-24T10:41:27.614Z,9.74
2023-03-24T10:43:56.958Z,9.64
2023-03-24T10:46:26.942Z,9.59
2023-03-24T10:49:08.580Z,9.46
2023-03-24T10:51:35.190Z,9.42
2023-03-24T10:54:23.099Z,9.38
2023-03-24T10:57:06.590Z,9.28
2023-03-24T10:59:39.893Z,9.04
2023-03-24T11:02:09.251Z,8.78
2023-03-24T11:04:41.096Z,8.72
2023-03-24T11:07:17.715Z,8.68
2023-03-24T11:10:09.468Z,8.66
2023-03-24T11:12:39.121Z,8.63
2023-03-24T11:15:24.529Z,8.62
2023-03-24T11:17:57.731Z,8.61
2023-03-24T11:20:35.485Z,8.52
2023-03-24T11:23:07.163Z,8.46
2023-03-24T11:25:37.071Z,8.39
2023-03-24T11:28:09.834Z,8.41
2023-03-24T11:30:47.096Z,8.41
2023-03-24T11:33:35.719Z,8.40
2023-03-24T11:36:28.546Z,8.22
2023-03-24T11:39:16.036Z,8.24
2023-03-24T11:42:08.321Z,8.18
2023-03-24T11:44:38.671Z,8.15
2023-03-24T11:47:31.665Z,8.16
2023-03-24T11:50:17.800Z,8.05
2023-03-24T11:53:07.807Z,8.05
2023-03-24T11:55:40.472Z,8.07
2023-03-24T11:58:30.004Z,8.06
2023-03-24T12:01:07.990Z,8.02
2023-03-24T12:03:40.430Z,7.93
2023-03-24T12:06:24.323Z,7.87
2023-03-24T12:09:33.968Z,7.82
2023-03-24T12:12:24.826Z,7.72
2023-03-24T12:15:28.224Z,7.63
2023-03-24T12:17:55.549Z,7.54
2023-03-24T12:20:51.267Z,7.56
2023-03-24T12:23:27.398Z,7.55
2023-03-24T12:26:14.355Z,7.52
2023-03-24T12:29:14.192Z,7.44
2023-03-24T12:32:08.003Z,7.46
2023-03-24T12:34:38.490Z,7.44
2023-03-24T12:37:17.888Z,7.37
2023-03-24T12:40:02.574Z,7.36
2023-03-24T12:42:39.290Z,7.37
2023-03-24T12:45:38.374Z,7.38
2023-03-24T12:48:32.292Z,7.37
2023-03-24T12:51:11.063Z,7.33
2023-03-24T12:53:54.976Z,7.39
2023-03-24T12:56:31.361Z,7.37
2023-03-24T12:59:18.324Z,7.41
2023-03-24T13:01:46.829Z,7.46
2023-03-24T13:04:21.777Z,7.43
2023-03-24T13:06:53.252Z,7.46
2023-03-24T13:09:36.200Z,7.44
2023-03-24T13:12:02.760Z,7.45
2023-03-24T13:15:11.890Z,7.41
2023-03-24T13:17:45.776Z,7.35
2023-03-24T13:20:18.309Z,7.38
2023-03-24T13:22:45.117Z,7.28
2023-03-24T13:25:45.863Z,7.29
2023-03-24T13:28:24.611Z,7.29
2023-03-24T13:30:53.549Z,7.33
2023-03-24T13:33:27.432Z,7.29
2023-03-24T13:36:31.390Z,7.24
2023-03-24T13:39:14.606Z,7.21
2023-03-24T13:41:47.444Z,7.18
2023-03-24T13:44:22.043Z,7.16
2023-03-24T13:47:12.038Z,7.11
2023-03-24T13:49:39.929Z,7.12
2023-03-24T13:52:21.471Z,7.20
2023-03-24T13:54:49.268Z,7.15
2023-03-24T13:57:20.785Z,7.06
2023-03-24T14:00:25.561Z,7.03
2023-03-24T14:03:12.368Z,6.94
2023-03-24T14:05:57.022Z,6.86
2023-03-24T14:09:01.550Z,6.84
2023-03-24T14:12:03.803Z,6.83
2023-03-24T14:14:34.776Z,6.82
2023-03-24T14:17:17.034Z,6.79
2023-03-24T14:20:11.390Z,6.75
2023-03-24T14:22:48.545Z,6.68
2023-03-24T14:25:17.354Z,6.71
2023-03-24T14:27:51.958Z,6.70
2023-03-24T14:30:28.358Z,6.70
2023-03-24T14:33:00.523Z,6.68
2023-03-24T14:35:44.879Z,6.64
2023-03-24T14:38:36.383Z,6.62
2023-03-24T14:41:16.617Z,6.63
2023-03-24T14:43:47.439Z,6.60
2023-03-24T14:46:23.356Z,6.60
2023-03-24T14:49:15.652Z,6.56
2023-03-24T14:52:13.850Z,6.61
2023-03-24T14:54:48.338Z,6.60
